Time;durP1;ratioP1;P1;durP2;ratioP2;P2;SDS_P1;SDS_P2;PMS_P1;PMS_P2;Temp;Humidity;BMP_temperature;BMP_pressure;BME280_temperature;BME280_humidity;BME280_pressure;Samples;Min_cycle;Max_cycle;Signal;HPM_P1;HPM_P2
2022/04/07 00:01:53;;;;;;;0.70;0.50;;;11.60;99.90;;;;;;5033481;28;20780;-70
2022/04/07 00:04:18;;;;;;;1.27;0.67;;;11.60;99.90;;;;;;5033419;28;20172;-70
2022/04/07 00:06:44;;;;;;;0.70;0.50;;;11.60;99.90;;;;;;5031483;28;20203;-69
2022/04/07 00:09:09;;;;;;;0.70;0.50;;;11.60;99.90;;;;;;5032266;28;20295;-70
2022/04/07 00:11:35;;;;;;;1.47;0.70;;;11.60;99.90;;;;;;5033448;28;20171;-69
2022/04/07 00:14:00;;;;;;;0.70;0.60;;;11.60;99.90;;;;;;5033686;28;20167;-69
2022/04/07 00:16:26;;;;;;;1.37;1.27;;;11.60;99.90;;;;;;5036123;28;20212;-70
2022/04/07 00:18:51;;;;;;;0.93;0.80;;;11.50;99.90;;;;;;5036554;28;20207;-69
2022/04/07 00:21:24;;;;;;;0.70;0.50;;;11.50;99.90;;;;;;5037938;28;20176;-69
2022/04/07 00:23:51;;;;;;;0.70;0.50;;;11.50;99.90;;;;;;5037426;28;20167;-70
2022/04/07 00:26:17;;;;;;;0.70;0.60;;;11.60;99.90;;;;;;5037426;28;20462;-70
2022/04/07 00:28:43;;;;;;;0.80;0.50;;;11.60;99.90;;;;;;5037839;28;20772;-70
2022/04/07 00:31:11;;;;;;;0.70;0.50;;;11.70;99.90;;;;;;5037326;28;20755;-70
2022/04/07 00:33:37;;;;;;;0.70;0.50;;;11.70;99.90;;;;;;5038165;28;20160;-70
2022/04/07 00:36:04;;;;;;;0.70;0.50;;;11.70;99.90;;;;;;5040223;28;20464;-70
2022/04/07 00:38:30;;;;;;;0.70;0.50;;;11.70;99.90;;;;;;5038659;28;20234;-69
2022/04/07 00:40:55;;;;;;;0.70;0.50;;;11.70;99.90;;;;;;5037851;28;20416;-70
2022/04/07 00:43:29;;;;;;;0.70;0.50;;;11.70;99.90;;;;;;5039962;28;20406;-69
2022/04/07 00:45:54;;;;;;;0.80;0.60;;;11.60;99.90;;;;;;5040468;28;20692;-70
2022/04/07 00:48:20;;;;;;;0.70;0.50;;;11.60;99.90;;;;;;5038433;28;20415;-70
2022/04/07 00:50:46;;;;;;;0.70;0.50;;;11.50;99.90;;;;;;5039820;28;20214;-69
2022/04/07 00:53:12;;;;;;;0.70;0.50;;;11.50;99.90;;;;;;5040635;28;20203;-69
2022/04/07 00:55:39;;;;;;;0.70;0.50;;;11.50;99.90;;;;;;5041170;28;20422;-69
2022/04/07 00:58:05;;;;;;;0.80;0.60;;;11.50;99.90;;;;;;5041038;28;20167;-70
2022/04/07 01:00:31;;;;;;;1.97;1.13;;;11.50;99.90;;;;;;5040750;28;20410;-69
2022/04/07 01:02:57;;;;;;;0.70;0.70;;;11.60;99.90;;;;;;5040426;28;20399;-69
2022/04/07 01:05:23;;;;;;;1.27;0.70;;;11.60;99.90;;;;;;5039853;28;20461;-69
2022/04/07 01:07:49;;;;;;;0.70;0.50;;;11.60;99.90;;;;;;5040345;28;20191;-69
2022/04/07 01:10:16;;;;;;;0.70;0.50;;;11.60;99.90;;;;;;5039296;28;20501;-69
2022/04/07 01:12:42;;;;;;;5.40;1.10;;;11.60;99.90;;;;;;5038375;28;20163;-69
2022/04/07 01:15:08;;;;;;;0.70;0.50;;;11.70;99.90;;;;;;5033987;28;21068;-69
2022/04/07 01:17:34;;;;;;;0.70;0.50;;;11.70;99.90;;;;;;5033879;28;20541;-69
2022/04/07 01:20:01;;;;;;;0.70;0.50;;;11.70;99.90;;;;;;5033870;28;20406;-69
2022/04/07 01:22:26;;;;;;;0.70;0.50;;;11.70;99.90;;;;;;5033817;28;20813;-69
2022/04/07 01:24:52;;;;;;;0.70;0.50;;;11.70;99.90;;;;;;5033734;28;20402;-69
2022/04/07 01:27:19;;;;;;;0.70;0.50;;;11.70;99.90;;;;;;5032889;28;20187;-69
2022/04/07 01:29:45;;;;;;;0.80;0.60;;;11.70;99.90;;;;;;5033505;28;20164;-69
2022/04/07 01:32:39;;;;;;;0.90;0.90;;;11.70;99.90;;;;;;5033744;28;20394;-70
2022/04/07 01:35:05;;;;;;;0.70;0.50;;;11.70;99.90;;;;;;5032300;28;20407;-69
2022/04/07 01:37:32;;;;;;;0.70;0.50;;;11.60;99.90;;;;;;5033254;28;20552;-69
2022/04/07 01:39:59;;;;;;;0.70;0.50;;;11.60;99.90;;;;;;5033361;28;20892;-69
2022/04/07 01:42:24;;;;;;;0.70;0.50;;;11.60;99.90;;;;;;5033277;28;20411;-69
2022/04/07 01:44:54;;;;;;;0.80;0.60;;;11.70;99.90;;;;;;5033198;28;20465;-69
2022/04/07 01:47:21;;;;;;;0.70;0.50;;;11.70;99.90;;;;;;5032944;28;20198;-69
2022/04/07 01:49:54;;;;;;;0.70;0.50;;;11.70;99.90;;;;;;5033368;28;20394;-69
2022/04/07 01:52:20;;;;;;;0.70;0.50;;;11.70;99.90;;;;;;5033312;28;20429;-69
2022/04/07 01:54:47;;;;;;;0.70;0.50;;;11.80;99.90;;;;;;5032206;28;20966;-69
2022/04/07 01:57:14;;;;;;;0.70;0.50;;;11.80;99.90;;;;;;5031472;28;21043;-69
2022/04/07 01:59:40;;;;;;;0.70;0.50;;;11.80;99.90;;;;;;5033192;28;20489;-69
2022/04/07 02:02:06;;;;;;;0.70;0.50;;;11.90;99.90;;;;;;5033075;28;20449;-69
2022/04/07 02:04:31;;;;;;;0.70;0.50;;;11.90;99.90;;;;;;5033104;28;20168;-69
2022/04/07 02:06:58;;;;;;;0.70;0.50;;;11.90;99.90;;;;;;5032687;28;20668;-69
2022/04/07 02:09:24;;;;;;;0.70;0.50;;;11.90;99.90;;;;;;5033045;28;20199;-69
2022/04/07 02:11:49;;;;;;;0.70;0.60;;;12.00;99.90;;;;;;5032934;28;20433;-69
2022/04/07 02:14:15;;;;;;;0.70;0.50;;;12.00;99.90;;;;;;5032974;28;20168;-69
2022/04/07 02:16:41;;;;;;;0.70;0.50;;;11.90;99.90;;;;;;5033323;28;20491;-69
2022/04/07 02:19:06;;;;;;;0.83;0.60;;;11.90;99.90;;;;;;5039129;28;20168;-69
2022/04/07 02:21:32;;;;;;;0.70;0.50;;;11.90;99.90;;;;;;5039183;28;20598;-69
2022/04/07 02:23:58;;;;;;;0.70;0.50;;;11.90;99.90;;;;;;5038327;28;20641;-69
2022/04/07 02:26:24;;;;;;;0.70;0.50;;;11.90;99.90;;;;;;5037996;28;20203;-70
2022/04/07 02:28:50;;;;;;;0.70;0.50;;;11.90;99.90;;;;;;5039522;28;20487;-70
2022/04/07 02:31:15;;;;;;;0.70;0.50;;;12.00;99.90;;;;;;5039717;28;20179;-69
2022/04/07 02:33:41;;;;;;;0.70;0.50;;;12.00;99.90;;;;;;5040250;28;20178;-70
2022/04/07 02:36:08;;;;;;;0.70;0.50;;;12.00;99.90;;;;;;5039183;28;20184;-69
2022/04/07 02:38:35;;;;;;;0.70;0.50;;;12.00;99.90;;;;;;5038490;28;20241;-70
2022/04/07 02:41:00;;;;;;;0.70;0.50;;;12.00;99.90;;;;;;5038490;28;20402;-69
2022/04/07 02:43:26;;;;;;;0.70;0.50;;;12.00;99.90;;;;;;5036443;28;20424;-69
2022/04/07 02:45:51;;;;;;;0.87;0.87;;;12.00;99.90;;;;;;5032221;28;20187;-69
2022/04/07 02:48:17;;;;;;;0.70;0.50;;;11.90;99.90;;;;;;5032074;28;20171;-69
2022/04/07 02:50:46;;;;;;;0.70;0.50;;;12.00;99.90;;;;;;5032328;28;20170;-69
2022/04/07 02:53:14;;;;;;;0.70;0.50;;;11.90;99.90;;;;;;5032233;28;20402;-69
2022/04/07 02:55:40;;;;;;;0.70;0.50;;;11.90;99.90;;;;;;5031025;28;20994;-69
2022/04/07 02:58:05;;;;;;;0.70;0.50;;;11.90;99.90;;;;;;5031854;28;20462;-71
2022/04/07 03:00:31;;;;;;;0.70;0.50;;;11.90;99.90;;;;;;5032171;28;20406;-71
2022/04/07 03:02:57;;;;;;;1.03;0.93;;;11.80;99.90;;;;;;5032052;28;20168;-70
2022/04/07 03:05:22;;;;;;;0.80;0.60;;;11.90;99.90;;;;;;5032127;28;20432;-71
2022/04/07 03:07:48;;;;;;;0.70;0.50;;;11.90;99.90;;;;;;5031840;28;20899;-70
2022/04/07 03:10:15;;;;;;;0.70;0.50;;;11.90;99.90;;;;;;5032104;28;20167;-71
2022/04/07 03:12:41;;;;;;;0.70;0.50;;;11.90;99.90;;;;;;5032013;28;20188;-71
2022/04/07 03:15:08;;;;;;;0.87;0.50;;;11.90;99.90;;;;;;5031897;28;20398;-71
2022/04/07 03:17:33;;;;;;;0.70;0.50;;;11.90;99.90;;;;;;5031914;28;20883;-71
2022/04/07 03:19:59;;;;;;;0.70;0.50;;;12.00;99.90;;;;;;5031770;28;20402;-71
2022/04/07 03:22:25;;;;;;;0.70;0.50;;;12.00;99.90;;;;;;5031910;28;20182;-71
2022/04/07 03:24:52;;;;;;;0.70;0.50;;;12.00;99.90;;;;;;5031798;28;20927;-70
2022/04/07 03:27:18;;;;;;;0.80;0.60;;;12.00;99.90;;;;;;5031432;28;20495;-70
2022/04/07 03:29:43;;;;;;;0.70;0.50;;;12.00;99.90;;;;;;5031874;28;20429;-70
2022/04/07 03:32:09;;;;;;;0.70;0.50;;;12.00;99.90;;;;;;5031781;28;20163;-70
2022/04/07 03:34:36;;;;;;;0.70;0.50;;;12.00;99.90;;;;;;5031737;28;20510;-70
2022/04/07 03:37:03;;;;;;;0.90;0.60;;;12.00;99.90;;;;;;5031428;28;20191;-70
2022/04/07 03:39:28;;;;;;;0.73;0.57;;;12.00;99.90;;;;;;5031578;28;20402;-69
2022/04/07 03:41:54;;;;;;;0.70;0.50;;;11.90;99.90;;;;;;5031591;28;20429;-69
2022/04/07 03:44:19;;;;;;;0.70;0.50;;;11.90;99.90;;;;;;5031541;28;20163;-69
2022/04/07 03:46:45;;;;;;;0.70;0.50;;;12.00;99.90;;;;;;5031235;28;20257;-69
2022/04/07 03:49:10;;;;;;;0.70;0.50;;;11.90;99.90;;;;;;5031559;28;20195;-69
2022/04/07 03:51:36;;;;;;;0.70;0.50;;;11.90;99.90;;;;;;5035062;28;20168;-69
2022/04/07 03:54:02;;;;;;;0.70;0.60;;;11.90;99.90;;;;;;5035373;28;20232;-71
2022/04/07 03:56:27;;;;;;;0.70;0.50;;;11.90;99.90;;;;;;5035418;28;20194;-71
2022/04/07 03:58:53;;;;;;;1.30;1.17;;;12.00;99.90;;;;;;5035231;28;20176;-69
2022/04/07 04:01:19;;;;;;;0.70;0.50;;;12.00;99.90;;;;;;5035472;28;20726;-69
2022/04/07 04:03:44;;;;;;;0.70;0.50;;;12.00;99.90;;;;;;5035480;28;20446;-70
2022/04/07 04:06:10;;;;;;;0.70;0.50;;;12.00;99.90;;;;;;5035321;28;20325;-70
2022/04/07 04:08:35;;;;;;;0.70;0.50;;;12.00;99.90;;;;;;5035138;28;20199;-70
2022/04/07 04:11:01;;;;;;;0.70;0.50;;;12.10;99.90;;;;;;5035091;28;20171;-69
2022/04/07 04:13:28;;;;;;;0.77;0.63;;;12.10;99.90;;;;;;5035257;28;20710;-70
2022/04/07 04:15:54;;;;;;;0.70;0.50;;;12.10;99.90;;;;;;5035039;28;20176;-70
2022/04/07 04:18:19;;;;;;;0.80;0.60;;;12.10;99.90;;;;;;5033523;28;20413;-69
2022/04/07 04:20:45;;;;;;;0.70;0.50;;;12.20;99.90;;;;;;5035039;28;20714;-70
2022/04/07 04:23:10;;;;;;;0.70;0.50;;;12.10;99.90;;;;;;5035083;28;20537;-70
2022/04/07 04:25:36;;;;;;;0.70;0.50;;;12.10;99.90;;;;;;5034819;28;20195;-70
2022/04/07 04:28:01;;;;;;;0.80;0.60;;;12.20;99.90;;;;;;5034692;28;20196;-70
2022/04/07 04:30:27;;;;;;;0.73;0.57;;;12.20;99.90;;;;;;5034879;28;20168;-70
2022/04/07 04:32:52;;;;;;;0.70;0.50;;;12.20;99.90;;;;;;5035109;28;20641;-70
2022/04/07 04:35:18;;;;;;;0.70;0.50;;;12.20;99.90;;;;;;5034738;28;20617;-70
2022/04/07 04:37:44;;;;;;;0.70;0.50;;;12.30;99.90;;;;;;5034601;28;20174;-70
2022/04/07 04:40:10;;;;;;;0.70;0.50;;;12.30;99.90;;;;;;5034625;28;20262;-71
2022/04/07 04:42:35;;;;;;;0.70;0.50;;;12.20;99.90;;;;;;5033694;28;20645;-70
2022/04/07 04:45:01;;;;;;;0.70;0.50;;;12.20;99.90;;;;;;5034563;28;20402;-70
2022/04/07 04:47:26;;;;;;;0.70;0.50;;;12.20;99.90;;;;;;5034479;28;20273;-70
2022/04/07 04:49:52;;;;;;;0.70;0.60;;;12.10;99.90;;;;;;5034707;28;20163;-70
2022/04/07 04:52:19;;;;;;;1.10;0.97;;;12.10;99.90;;;;;;5034547;28;20633;-70
2022/04/07 04:54:44;;;;;;;0.70;0.50;;;12.10;99.90;;;;;;5034340;28;20180;-70
2022/04/07 04:57:10;;;;;;;0.80;0.50;;;12.00;99.90;;;;;;5034225;28;20509;-70
2022/04/07 04:59:35;;;;;;;0.70;0.50;;;12.00;99.90;;;;;;5034398;28;20167;-70
2022/04/07 05:02:01;;;;;;;0.70;0.53;;;11.90;99.90;;;;;;5033330;28;20171;-70
2022/04/07 05:04:27;;;;;;;0.70;0.50;;;11.80;99.90;;;;;;5033058;28;20208;-69
2022/04/07 05:06:52;;;;;;;0.70;0.50;;;11.80;99.90;;;;;;5033840;28;20196;-70
2022/04/07 05:09:18;;;;;;;0.70;0.50;;;11.70;99.90;;;;;;5034323;28;20524;-70
2022/04/07 05:11:43;;;;;;;0.93;0.93;;;11.70;99.90;;;;;;5034443;28;20160;-70
2022/04/07 05:14:09;;;;;;;0.70;0.50;;;11.60;99.90;;;;;;5034334;28;20191;-69
2022/04/07 05:16:34;;;;;;;0.70;0.50;;;11.60;99.90;;;;;;5036907;28;20194;-70
2022/04/07 05:19:00;;;;;;;0.70;0.50;;;11.60;99.90;;;;;;5036733;28;20172;-70
2022/04/07 05:21:26;;;;;;;0.70;0.50;;;11.60;99.90;;;;;;5034334;28;20175;-69
2022/04/07 05:23:51;;;;;;;0.70;0.50;;;11.50;99.90;;;;;;5033796;28;20183;-70
2022/04/07 05:26:17;;;;;;;0.70;0.50;;;11.60;99.90;;;;;;5033791;28;20963;-70
2022/04/07 05:28:43;;;;;;;0.70;0.50;;;11.60;99.90;;;;;;5034902;28;20218;-70
2022/04/07 05:31:09;;;;;;;0.93;0.70;;;11.60;99.90;;;;;;5037401;28;20456;-70
2022/04/07 05:33:35;;;;;;;5.70;0.93;;;11.60;99.90;;;;;;5037075;28;20174;-70
2022/04/07 05:36:00;;;;;;;0.70;0.53;;;11.70;99.90;;;;;;5036398;28;20422;-70
2022/04/07 05:38:26;;;;;;;1.53;0.60;;;11.70;99.90;;;;;;5036466;28;20187;-70
2022/04/07 05:40:52;;;;;;;0.70;0.50;;;11.70;99.90;;;;;;5035439;28;20238;-70
2022/04/07 05:43:18;;;;;;;0.70;0.50;;;11.80;99.90;;;;;;5034079;28;20218;-71
2022/04/07 05:45:45;;;;;;;0.70;0.50;;;11.80;99.90;;;;;;5034337;28;20426;-71
2022/04/07 05:48:14;;;;;;;0.70;0.50;;;11.80;99.90;;;;;;5033706;28;20561;-70
2022/04/07 05:50:40;;;;;;;0.70;0.50;;;11.90;99.90;;;;;;5034313;28;20410;-70
2022/04/07 05:53:06;;;;;;;0.70;0.50;;;11.90;99.90;;;;;;5033879;28;20402;-69
2022/04/07 05:55:33;;;;;;;0.70;0.60;;;11.90;99.90;;;;;;5033407;28;20656;-70
2022/04/07 05:58:02;;;;;;;0.70;0.50;;;11.90;99.90;;;;;;5033096;28;20406;-69
2022/04/07 06:00:28;;;;;;;0.70;0.50;;;12.00;99.90;;;;;;5033577;28;20912;-70
2022/04/07 06:02:53;;;;;;;0.70;0.50;;;12.00;99.90;;;;;;5034074;28;20413;-70
2022/04/07 06:05:19;;;;;;;0.70;0.50;;;12.00;99.90;;;;;;5033382;28;20195;-70
2022/04/07 06:07:46;;;;;;;0.70;0.50;;;12.00;99.90;;;;;;5032847;28;20183;-70
2022/04/07 06:10:12;;;;;;;0.70;0.50;;;12.00;99.90;;;;;;5033042;28;20398;-70
2022/04/07 06:12:42;;;;;;;0.70;0.50;;;12.00;99.90;;;;;;5032949;28;20400;-69
2022/04/07 06:15:09;;;;;;;0.70;0.50;;;12.00;99.90;;;;;;5031581;28;20427;-68
2022/04/07 06:17:38;;;;;;;0.70;0.50;;;12.00;99.90;;;;;;5032766;28;20795;-71
2022/04/07 06:20:06;;;;;;;0.70;0.50;;;12.00;99.90;;;;;;5032937;28;20416;-70
2022/04/07 06:22:32;;;;;;;0.70;0.50;;;12.00;99.90;;;;;;5032994;28;20764;-69
2022/04/07 06:24:58;;;;;;;0.70;0.50;;;11.90;99.90;;;;;;5032471;28;20414;-69
2022/04/07 06:27:32;;;;;;;0.70;0.50;;;11.90;99.90;;;;;;5032486;28;20453;-70
2022/04/07 06:29:57;;;;;;;0.70;0.50;;;11.90;99.90;;;;;;5032632;28;20438;-69
2022/04/07 06:32:23;;;;;;;0.70;0.60;;;11.80;99.90;;;;;;5032516;28;20430;-69
2022/04/07 06:34:48;;;;;;;0.70;0.50;;;11.90;99.90;;;;;;5031210;28;20258;-69
2022/04/07 06:37:14;;;;;;;0.70;0.50;;;11.90;99.90;;;;;;5032262;28;20199;-69
2022/04/07 06:39:39;;;;;;;0.70;0.50;;;12.00;99.90;;;;;;5032379;28;20180;-71
2022/04/07 06:42:05;;;;;;;0.70;0.50;;;12.00;99.90;;;;;;5032425;28;20641;-69
2022/04/07 06:44:30;;;;;;;0.70;0.50;;;12.10;99.90;;;;;;5032387;28;20176;-69
2022/04/07 06:46:56;;;;;;;0.70;0.50;;;12.10;99.90;;;;;;5032121;28;20250;-70
2022/04/07 06:49:21;;;;;;;0.70;0.60;;;12.20;99.90;;;;;;5032138;28;20168;-70
2022/04/07 06:51:47;;;;;;;0.70;0.50;;;12.10;99.90;;;;;;5032317;28;20176;-70
2022/04/07 06:54:12;;;;;;;0.70;0.50;;;12.10;99.90;;;;;;5032105;28;20187;-70
2022/04/07 06:56:38;;;;;;;0.70;0.50;;;12.10;99.90;;;;;;5033623;28;20679;-70
2022/04/07 06:59:05;;;;;;;0.70;0.50;;;12.00;99.90;;;;;;5036284;28;20172;-70
2022/04/07 07:01:31;;;;;;;0.70;0.50;;;12.00;99.90;;;;;;5034821;28;20187;-70
2022/04/07 07:03:56;;;;;;;0.70;0.50;;;12.00;99.90;;;;;;5034884;28;20418;-70
2022/04/07 07:06:22;;;;;;;0.80;0.60;;;12.00;99.90;;;;;;5035864;28;20223;-70
2022/04/07 07:08:47;;;;;;;0.70;0.50;;;12.10;99.90;;;;;;5033386;28;20174;-70
2022/04/07 07:11:14;;;;;;;0.77;0.60;;;12.20;99.90;;;;;;5032218;28;20178;-70
2022/04/07 07:13:39;;;;;;;0.70;0.50;;;12.20;99.90;;;;;;5032178;28;20242;-70
2022/04/07 07:16:05;;;;;;;0.70;0.50;;;12.30;99.90;;;;;;5032261;28;20851;-70
2022/04/07 07:18:31;;;;;;;0.70;0.50;;;12.40;99.90;;;;;;5032217;28;20179;-70
2022/04/07 07:20:56;;;;;;;0.70;0.50;;;12.40;99.90;;;;;;5033327;28;20426;-70
2022/04/07 07:23:22;;;;;;;0.70;0.50;;;12.40;99.90;;;;;;5034254;28;20164;-69
2022/04/07 07:25:48;;;;;;;0.70;0.50;;;12.30;99.90;;;;;;5038496;28;20194;-69
2022/04/07 07:28:13;;;;;;;0.70;0.50;;;12.20;99.90;;;;;;5040515;28;20237;-70
2022/04/07 07:30:39;;;;;;;0.70;0.50;;;12.20;99.90;;;;;;5041055;28;20652;-72
2022/04/07 07:33:05;;;;;;;0.70;0.50;;;12.20;99.90;;;;;;5042776;28;20168;-70
2022/04/07 07:35:30;;;;;;;0.70;0.50;;;12.20;99.90;;;;;;5043058;28;20200;-70
2022/04/07 07:38:01;;;;;;;0.70;0.50;;;12.20;99.90;;;;;;5042233;28;20202;-70
2022/04/07 07:40:31;;;;;;;0.70;0.50;;;12.10;99.90;;;;;;5040985;28;20183;-69
2022/04/07 07:43:00;;;;;;;0.70;0.50;;;12.10;99.90;;;;;;5042918;28;20414;-71
2022/04/07 07:45:27;;;;;;;0.70;0.50;;;12.20;99.90;;;;;;5039485;28;20957;-73
2022/04/07 07:47:53;;;;;;;0.70;0.50;;;12.20;99.90;;;;;;5038593;28;20446;-72
2022/04/07 07:50:19;;;;;;;0.70;0.50;;;12.10;99.90;;;;;;5038256;28;20394;-71
2022/04/07 07:52:45;;;;;;;0.70;0.50;;;12.10;99.90;;;;;;5036805;28;20428;-71
2022/04/07 07:55:11;;;;;;;0.70;0.50;;;12.20;99.90;;;;;;5038074;28;20524;-72
2022/04/07 07:57:36;;;;;;;0.70;0.50;;;12.20;99.90;;;;;;5038433;28;20187;-72
2022/04/07 08:00:07;;;;;;;0.70;0.50;;;12.20;99.90;;;;;;5038074;28;20221;-70
2022/04/07 08:02:34;;;;;;;0.70;0.50;;;12.30;99.90;;;;;;5038065;28;20549;-70
2022/04/07 08:05:00;;;;;;;0.70;0.50;;;12.30;99.90;;;;;;5038378;28;20403;-71
2022/04/07 08:07:25;;;;;;;0.70;0.50;;;12.40;99.90;;;;;;5037804;28;20453;-71
2022/04/07 08:09:51;;;;;;;0.70;0.50;;;12.40;99.90;;;;;;5037998;28;20857;-71
2022/04/07 08:12:16;;;;;;;0.70;0.50;;;12.60;99.90;;;;;;5038009;28;20721;-71
2022/04/07 08:14:42;;;;;;;0.70;0.50;;;12.60;99.90;;;;;;5038036;28;20171;-71
2022/04/07 08:17:08;;;;;;;1.93;1.13;;;12.70;99.90;;;;;;5037798;28;20194;-71
2022/04/07 08:19:35;;;;;;;0.70;0.50;;;12.70;99.90;;;;;;5037871;28;20798;-70
2022/04/07 08:22:02;;;;;;;0.70;0.50;;;12.60;99.90;;;;;;5038094;28;20250;-70
2022/04/07 08:24:27;;;;;;;1.10;0.70;;;12.70;99.90;;;;;;5037908;28;20430;-70
2022/04/07 08:26:53;;;;;;;0.70;0.50;;;12.70;99.90;;;;;;5038142;28;20474;-70
2022/04/07 08:29:18;;;;;;;0.70;0.50;;;12.70;99.90;;;;;;5038433;28;20193;-70
2022/04/07 08:31:44;;;;;;;0.70;0.50;;;12.80;99.90;;;;;;5042303;28;20234;-70
2022/04/07 08:34:10;;;;;;;0.70;0.50;;;12.70;99.90;;;;;;5042202;28;20192;-70
2022/04/07 08:36:35;;;;;;;0.70;0.50;;;12.80;99.90;;;;;;5039800;28;20234;-70
2022/04/07 08:39:01;;;;;;;0.80;0.70;;;12.90;99.90;;;;;;5039174;28;20557;-70
2022/04/07 08:41:31;;;;;;;0.70;0.50;;;13.00;99.90;;;;;;5035524;28;20600;-70
2022/04/07 08:43:58;;;;;;;0.70;0.60;;;13.20;99.90;;;;;;5036381;28;20180;-70
2022/04/07 08:46:26;;;;;;;0.80;0.60;;;13.30;99.90;;;;;;5038828;28;20457;-70
2022/04/07 08:48:55;;;;;;;0.70;0.50;;;13.40;99.90;;;;;;5039417;28;20925;-71
2022/04/07 08:51:21;;;;;;;0.70;0.50;;;13.50;99.90;;;;;;5039504;28;20977;-70
2022/04/07 08:53:47;;;;;;;0.70;0.50;;;13.60;99.90;;;;;;5038642;28;20427;-69
2022/04/07 08:56:13;;;;;;;1.97;0.70;;;13.50;99.90;;;;;;5032934;28;20285;-70
2022/04/07 08:58:38;;;;;;;0.70;0.50;;;13.60;99.90;;;;;;5033937;28;20963;-70
2022/04/07 09:01:04;;;;;;;0.70;0.50;;;13.60;99.90;;;;;;5039851;28;20195;-69
2022/04/07 09:03:30;;;;;;;0.70;0.50;;;13.60;99.90;;;;;;5037469;28;20176;-71
2022/04/07 09:05:57;;;;;;;0.70;0.50;;;13.80;99.90;;;;;;5038626;28;20187;-71
2022/04/07 09:08:29;;;;;;;0.70;0.50;;;13.90;99.90;;;;;;5037247;28;20207;-70
2022/04/07 09:10:55;;;;;;;0.70;0.50;;;14.30;99.90;;;;;;5025952;28;20446;-70
2022/04/07 09:13:21;;;;;;;0.70;0.50;;;14.60;99.90;;;;;;5022412;28;20443;-71
2022/04/07 09:15:49;;;;;;;0.70;0.50;;;15.00;99.90;;;;;;5021182;28;20242;-71
2022/04/07 09:18:23;;;;;;;0.70;0.50;;;15.10;99.90;;;;;;5034106;28;20422;-72
2022/04/07 09:20:48;;;;;;;0.70;0.50;;;15.20;99.90;;;;;;5027275;28;20410;-71
2022/04/07 09:23:14;;;;;;;0.70;0.50;;;15.60;99.90;;;;;;5026604;28;20442;-70
2022/04/07 09:25:49;;;;;;;0.70;0.50;;;16.00;99.90;;;;;;5024690;28;20208;-71
2022/04/07 09:28:27;;;;;;;0.70;0.50;;;16.20;99.90;;;;;;5024246;28;20190;-71
2022/04/07 09:30:54;;;;;;;0.70;0.50;;;16.20;99.90;;;;;;5028419;28;20927;-71
2022/04/07 09:33:22;;;;;;;0.70;0.50;;;16.20;99.90;;;;;;5023311;28;20421;-71
2022/04/07 09:36:02;;;;;;;0.70;0.50;;;16.20;99.90;;;;;;5026500;28;20429;-70
2022/04/07 09:38:30;;;;;;;0.70;0.50;;;16.30;99.90;;;;;;5025725;28;20899;-68
2022/04/07 09:41:12;;;;;;;0.70;0.50;;;16.50;99.90;;;;;;5025037;28;20507;-70
2022/04/07 09:43:47;;;;;;;0.77;0.50;;;16.50;99.90;;;;;;5027510;28;20407;-70
2022/04/07 09:46:18;;;;;;;0.77;0.50;;;16.70;99.90;;;;;;5025292;28;20790;-69
2022/04/07 09:49:03;;;;;;;0.70;0.50;;;16.80;99.90;;;;;;5026251;28;20422;-71
2022/04/07 09:51:29;;;;;;;0.70;0.50;;;16.90;99.90;;;;;;5027155;28;20394;-70
2022/04/07 09:53:56;;;;;;;0.70;0.50;;;16.90;99.90;;;;;;5025245;28;20787;-70
2022/04/07 09:56:26;;;;;;;0.70;0.50;;;16.80;99.90;;;;;;5025718;28;20418;-71
2022/04/07 09:58:53;;;;;;;0.70;0.50;;;16.60;99.90;;;;;;5025987;28;20795;-71
2022/04/07 10:01:19;;;;;;;0.70;0.50;;;16.50;99.90;;;;;;5023769;28;20502;-71
2022/04/07 10:03:47;;;;;;;0.70;0.50;;;16.30;99.90;;;;;;5024907;28;20430;-71
2022/04/07 10:06:14;;;;;;;0.80;0.50;;;16.10;99.90;;;;;;5026092;28;20781;-70
2022/04/07 10:08:42;;;;;;;0.70;0.50;;;15.80;99.90;;;;;;5021542;28;20407;-70
2022/04/07 10:11:08;;;;;;;0.70;0.50;;;15.60;99.90;;;;;;5024666;28;20418;-70
2022/04/07 10:13:37;;;;;;;0.70;0.60;;;15.30;99.90;;;;;;5013544;28;20960;-70
2022/04/07 10:16:03;;;;;;;0.70;0.50;;;15.00;99.90;;;;;;5013338;28;20478;-70
2022/04/07 10:18:42;;;;;;;0.70;0.50;;;14.80;99.90;;;;;;5014833;28;20403;-70
2022/04/07 10:21:11;;;;;;;0.70;0.50;;;14.60;99.90;;;;;;5023003;28;20945;-71
2022/04/07 10:23:44;;;;;;;0.70;0.50;;;14.30;99.90;;;;;;5021553;28;20425;-70
2022/04/07 10:26:12;;;;;;;0.70;0.50;;;14.10;99.90;;;;;;5025182;28;20430;-71
2022/04/07 10:28:37;;;;;;;0.70;0.50;;;13.90;99.90;;;;;;5021922;28;20398;-70
2022/04/07 10:31:16;;;;;;;0.70;0.50;;;13.70;99.90;;;;;;5024749;28;20405;-70
2022/04/07 10:33:46;;;;;;;0.70;0.50;;;13.50;99.90;;;;;;5025072;28;20247;-71
2022/04/07 10:36:40;;;;;;;0.70;0.50;;;13.30;99.90;;;;;;5024512;28;20514;-71
2022/04/07 10:39:12;;;;;;;0.70;0.50;;;13.20;99.90;;;;;;5054970;28;20403;-71
2022/04/07 10:41:37;;;;;;;0.70;0.50;;;13.00;99.90;;;;;;5022793;28;20410;-70
2022/04/07 10:44:14;;;;;;;0.70;0.50;;;12.90;99.90;;;;;;5024837;28;20900;-71
2022/04/07 10:46:40;;;;;;;0.70;0.50;;;12.80;99.90;;;;;;5024798;28;20278;-70
2022/04/07 10:49:10;;;;;;;0.70;0.60;;;12.70;99.90;;;;;;5022760;28;20454;-70
2022/04/07 10:51:53;;;;;;;0.70;0.50;;;12.70;99.90;;;;;;5020337;28;20192;-70
2022/04/07 10:54:18;;;;;;;0.70;0.50;;;13.00;99.90;;;;;;5014456;28;20442;-71
2022/04/07 10:56:49;;;;;;;0.90;0.70;;;13.10;99.90;;;;;;5016885;28;20430;-71
2022/04/07 10:59:17;;;;;;;0.70;0.50;;;13.40;99.90;;;;;;5012606;28;20172;-70
2022/04/07 11:01:42;;;;;;;0.70;0.50;;;14.90;99.90;;;;;;5012276;28;20412;-71
2022/04/07 11:04:17;;;;;;;3.60;0.80;;;17.40;99.90;;;;;;5013563;28;20411;-70
2022/04/07 11:07:02;;;;;;;0.70;0.50;;;19.90;99.90;;;;;;5014316;28;20202;-70
2022/04/07 11:09:49;;;;;;;0.70;0.50;;;22.50;99.90;;;;;;5013563;28;20830;-68
2022/04/07 11:12:18;;;;;;;2.40;0.60;;;23.10;99.90;;;;;;5013172;28;20490;-69
2022/04/07 11:14:45;;;;;;;0.80;0.60;;;23.10;88.90;;;;;;5012477;28;20402;-68
2022/04/07 11:17:16;;;;;;;0.80;0.50;;;22.60;75.30;;;;;;5019220;28;20423;-68
2022/04/07 11:20:09;;;;;;;0.90;0.60;;;21.80;72.20;;;;;;5020830;28;20453;-68
2022/04/07 11:23:05;;;;;;;0.80;0.50;;;21.80;67.70;;;;;;5022921;28;20403;-69
2022/04/07 11:25:36;;;;;;;0.80;0.50;;;24.70;71.30;;;;;;5025549;28;20435;-68
2022/04/07 11:28:14;;;;;;;0.80;0.50;;;27.50;61.50;;;;;;5017957;28;20459;-68
2022/04/07 11:30:52;;;;;;;0.90;0.60;;;30.20;56.10;;;;;;5018029;28;20422;-68
2022/04/07 11:33:27;;;;;;;0.80;0.60;;;32.30;49.60;;;;;;5016707;28;20438;-69
2022/04/07 11:35:58;;;;;;;1.20;0.70;;;34.10;46.10;;;;;;5012118;28;20476;-69
2022/04/07 11:38:26;;;;;;;0.90;0.60;;;35.80;40.00;;;;;;5010591;28;20747;-68
2022/04/07 11:41:01;;;;;;;0.90;0.70;;;37.20;38.20;;;;;;5011976;28;20407;-68
2022/04/07 11:43:27;;;;;;;0.90;0.60;;;38.50;35.20;;;;;;5010766;28;20406;-69
2022/04/07 11:45:56;;;;;;;1.00;0.80;;;39.30;33.00;;;;;;5011896;28;20854;-69
2022/04/07 11:48:23;;;;;;;0.90;0.70;;;40.00;32.40;;;;;;5011749;28;20200;-68
2022/04/07 11:50:49;;;;;;;1.40;0.80;;;40.90;31.90;;;;;;5011986;28;20403;-69
2022/04/07 11:53:16;;;;;;;0.90;0.70;;;42.00;30.20;;;;;;5011784;28;20435;-69
2022/04/07 11:55:42;;;;;;;2.10;0.80;;;43.00;29.20;;;;;;5011784;28;20502;-69
2022/04/07 11:58:10;;;;;;;0.90;0.70;;;43.60;28.70;;;;;;5011633;28;20414;-69
2022/04/07 12:00:36;;;;;;;0.90;0.73;;;43.90;27.00;;;;;;5011841;28;20410;-69
2022/04/07 12:03:05;;;;;;;0.90;0.70;;;43.70;26.00;;;;;;5011892;28;20403;-69
2022/04/07 12:05:30;;;;;;;0.90;0.70;;;42.80;25.90;;;;;;5010500;28;20247;-69
2022/04/07 12:08:13;;;;;;;1.00;0.90;;;42.50;26.30;;;;;;5011418;28;20451;-69
2022/04/07 12:10:40;;;;;;;1.10;0.70;;;42.70;27.00;;;;;;5012082;28;20640;-68
2022/04/07 12:13:06;;;;;;;0.90;0.80;;;43.00;26.30;;;;;;5015404;28;20425;-69
2022/04/07 12:15:34;;;;;;;0.90;0.70;;;43.40;26.20;;;;;;5015221;28;20510;-69
2022/04/07 12:18:08;;;;;;;0.90;0.80;;;43.70;26.00;;;;;;5015149;28;20457;-69
2022/04/07 12:20:38;;;;;;;1.63;1.50;;;44.10;25.80;;;;;;5015387;28;20409;-69
2022/04/07 12:23:10;;;;;;;1.00;0.80;;;44.30;25.40;;;;;;5015586;28;20441;-69
2022/04/07 12:25:41;;;;;;;1.00;0.80;;;43.30;25.40;;;;;;5015120;28;20484;-69
2022/04/07 12:28:11;;;;;;;0.90;0.80;;;42.30;25.10;;;;;;5016580;28;20450;-69
2022/04/07 12:30:48;;;;;;;0.90;0.70;;;40.80;25.80;;;;;;5021913;28;20410;-69
2022/04/07 12:33:40;;;;;;;1.20;0.93;;;39.80;26.00;;;;;;5021800;28;20483;-69
2022/04/07 12:36:07;;;;;;;1.10;0.80;;;40.00;26.70;;;;;;5021257;28;20418;-70
2022/04/07 12:38:33;;;;;;;2.13;0.80;;;40.20;26.00;;;;;;5019386;28;20541;-69
2022/04/07 12:41:12;;;;;;;0.90;0.70;;;38.90;25.50;;;;;;5018844;28;20400;-70
2022/04/07 12:43:51;;;;;;;0.97;0.87;;;37.90;26.60;;;;;;5014199;28;20455;-69
2022/04/07 12:46:18;;;;;;;0.90;0.70;;;37.90;26.50;;;;;;5014673;28;20426;-69
2022/04/07 12:49:00;;;;;;;1.60;1.03;;;38.20;26.80;;;;;;5014506;28;20403;-69
2022/04/07 12:51:26;;;;;;;0.90;0.70;;;37.70;26.70;;;;;;5014859;28;20405;-69